Informes de METARS cercanos

 

LEAL - Alicante/El Alte, Spain
Distance from station: SSE 60km
Actualización: 03/08/2021 22:00
Despejado
Despejado
 Viento del varies
Viento: varies 4 km/h
Temperatura: 24°C
Rocío: 20°C
Humedad: 78%
Barómetro: 1015 hPa
Resumen: Despejado
Visibility: greater than 10 km
2021/08/03 20:00 LEAL 032000Z VRB02KT CAVOK 24/20 Q1015 NOSIG
LEVC - Valencia (civ/Mi, Spain
Distance from station: NNE 84km
Actualización: 03/08/2021 22:00
Despejado
Despejado
 Viento del varies
Viento: varies 15 km/h
Temperatura: 26°C
Rocío: 19°C
Humedad: 65%
Barómetro: 1014 hPa
Resumen: Despejado
Visibility: greater than 10 km
2021/08/03 20:00 LEVC 032000Z VRB08KT CAVOK 26/19 Q1014 NOSIG
 
LEAB - Albacete (civ/Mi, Spain
Distance from station: O 95km
Actualización: 03/08/2021 22:00
Despejado
Despejado
 Viento del S
Viento: S 13 km/h
Temperatura: 25°C
Rocío: 12°C
Humedad: 44%
Barómetro: 1017 hPa
Resumen: Despejado
Visibility: greater than 10 km
2021/08/03 20:00 LEAB 032000Z 17007KT 140V200 CAVOK 25/12 Q1017 NOSIG
LERI - Alcantarilla(Sp-, Spain
Distance from station: SSO 100km
Actualización: 03/08/2021 20:00
NOT Current
Despejado
Despejado
 Viento del SE
Viento: SE 17 km/h
Temperatura: 29°C
Rocío: 13°C
Humedad: 37%
Barómetro: 1014 hPa
Resumen: Despejado
Visibility: greater than 10 km
2021/08/03 18:00 LERI 031800Z 14009KT 100V180 CAVOK 29/13 Q1014 NOSIG
 
LELC - San Javier(Mil/C, Spain
Distance from station: S 113km
Actualización: 03/08/2021 22:00
Few Clouds
Few Clouds
 Viento del SSO
Viento: SSO 9 km/h
Temperatura: 25°C
Rocío: 20°C
Humedad: 74%
Barómetro: 1015 hPa
Clouds: Few Clouds
Visibility: 10 km
Cloud details: Few Clouds 671 m
2021/08/03 20:00 LELC 032000Z 20005KT 160V230 9999 FEW022 25/20 Q1015 NOSIG
LEIB - Ibiza/Es Codola, Spain
Distance from station: E 186km
Actualización: 03/08/2021 22:00
Despejado
Despejado
 Viento del ESE
Viento: ESE 6 km/h
Temperatura: 24°C
Rocío: 19°C
Humedad: 74%
Barómetro: 1014 hPa
Resumen: Despejado
Visibility: greater than 10 km
2021/08/03 20:00 LEIB 032000Z 12003KT 090V150 CAVOK 24/19 Q1014 NOSIG
 
LEAM - Almeria Airport, Spain
Distance from station: SSO 256km
Actualización: 03/08/2021 22:00
Few Clouds
Few Clouds
 Viento del SO
Viento: SO 6 km/h
Temperatura: 24°C
Rocío: 22°C
Humedad: 89%
Barómetro: 1015 hPa
Clouds: Few Clouds
Visibility: 10 km
Cloud details: Few Clouds 1067 m
2021/08/03 20:00 LEAM 032000Z 22003KT 190V250 9999 FEW035 24/22 Q1015
LEMD - Madrid/Barajas, Spain
Distance from station: NO 305km
Actualización: 03/08/2021 22:00
Despejado
Despejado
 Viento del OSO
Viento: OSO 20 km/h
Temperatura: 30°C
Rocío: 8°C
Humedad: 25%
Barómetro: 1014 hPa
Resumen: Despejado
Visibility: greater than 10 km
2021/08/03 20:00 LEMD 032000Z 25011KT CAVOK 30/08 Q1014 NOSIG
 
LEPA - Palma De Mallorc, Spain
Distance from station: ENE 313km
Actualización: 03/08/2021 22:00
Despejado
Despejado
 Viento del varies
Viento: varies 4 km/h
Temperatura: 26°C
Rocío: 19°C
Humedad: 65%
Barómetro: 1014 hPa
Resumen: Despejado
Visibility: greater than 10 km
2021/08/03 20:00 LEPA 032000Z VRB02KT CAVOK 26/19 Q1014 NOSIG